createdAt,value
2019-05-17T00:02:13.366Z,101362.30
2019-05-17T00:04:42.293Z,101363.45
2019-05-17T00:07:53.930Z,101357.61
2019-05-17T00:10:23.227Z,101358.31
2019-05-17T00:12:52.179Z,101347.84
2019-05-17T00:15:23.981Z,101346.81
2019-05-17T00:17:52.889Z,101345.78
2019-05-17T00:20:21.679Z,101338.66
2019-05-17T00:22:50.511Z,101339.06
2019-05-17T00:25:19.515Z,101341.06
2019-05-17T00:27:48.312Z,101344.31
2019-05-17T00:30:17.753Z,101339.18
2019-05-17T00:32:57.172Z,101342.62
2019-05-17T00:35:18.843Z,101338.22
2019-05-17T00:37:47.730Z,101334.69
2019-05-17T00:40:16.980Z,101332.81
2019-05-17T00:42:48.132Z,101332.20
2019-05-17T00:45:17.746Z,101323.48
2019-05-17T00:47:46.957Z,101321.69
2019-05-17T00:50:18.033Z,101314.78
2019-05-17T00:52:47.620Z,101312.70
2019-05-17T00:55:17.607Z,101314.09
2019-05-17T00:57:47.505Z,101314.89
2019-05-17T01:00:19.077Z,101316.88
2019-05-17T01:02:49.202Z,101316.96
2019-05-17T01:05:18.174Z,101319.74
2019-05-17T01:07:47.302Z,101319.52
2019-05-17T01:10:16.964Z,101316.02
2019-05-17T01:12:59.639Z,101317.10
2019-05-17T01:15:28.575Z,101312.20
2019-05-17T01:17:57.411Z,101308.66
2019-05-17T01:20:27.728Z,101308.47
2019-05-17T01:22:56.797Z,101307.53
2019-05-17T01:25:27.291Z,101305.50
2019-05-17T01:28:03.803Z,101294.50
2019-05-17T01:30:33.667Z,101306.44
2019-05-17T01:33:02.453Z,101295.78
2019-05-17T01:35:31.330Z,101301.16
2019-05-17T01:38:00.131Z,101296.20
2019-05-17T01:40:29.111Z,101296.59
2019-05-17T01:42:58.237Z,101290.41
2019-05-17T01:45:27.584Z,101291.91
2019-05-17T01:47:57.821Z,101299.37
2019-05-17T01:50:26.723Z,101290.50
2019-05-17T01:52:56.580Z,101285.64
2019-05-17T01:55:26.545Z,101284.19
2019-05-17T01:58:00.398Z,101282.19
2019-05-17T02:00:29.362Z,101284.52
2019-05-17T02:02:58.303Z,101269.66
2019-05-17T02:05:27.506Z,101268.80
2019-05-17T02:07:56.946Z,101268.66
2019-05-17T02:10:27.158Z,101277.38
2019-05-17T02:12:57.022Z,101264.70
2019-05-17T02:15:26.751Z,101264.93
2019-05-17T02:17:57.395Z,101265.31
2019-05-17T02:20:27.523Z,101264.37
2019-05-17T02:22:56.573Z,101256.39
2019-05-17T02:25:27.268Z,101253.00
2019-05-17T02:27:56.219Z,101251.86
2019-05-17T02:30:33.750Z,101245.77
2019-05-17T02:33:06.645Z,101253.71
2019-05-17T02:35:35.469Z,101251.49
2019-05-17T02:38:04.358Z,101248.94
2019-05-17T02:40:34.327Z,101253.56
2019-05-17T02:43:03.726Z,101251.30
2019-05-17T02:45:33.295Z,101255.64
2019-05-17T02:48:03.624Z,101251.02
2019-05-17T02:50:33.549Z,101253.94
2019-05-17T02:53:04.501Z,101254.88
2019-05-17T02:55:43.538Z,101258.56
2019-05-17T02:58:12.884Z,101264.69
2019-05-17T03:00:44.279Z,101262.62
2019-05-17T03:03:13.504Z,101264.69
2019-05-17T03:05:43.238Z,101264.13
2019-05-17T03:08:12.461Z,101269.23
2019-05-17T03:10:43.300Z,101273.75
2019-05-17T03:13:18.165Z,101272.09
2019-05-17T03:15:46.131Z,101266.20
2019-05-17T03:18:14.977Z,101266.97
2019-05-17T03:20:53.311Z,101268.28
2019-05-17T03:23:23.410Z,101265.27
2019-05-17T03:25:52.850Z,101270.55
2019-05-17T03:28:23.483Z,101271.30
2019-05-17T03:30:56.957Z,101272.77
2019-05-17T03:33:27.539Z,101268.47
2019-05-17T03:35:57.558Z,101270.64
2019-05-17T03:38:28.919Z,101263.94
2019-05-17T03:41:17.175Z,101256.72
2019-05-17T03:43:28.412Z,101256.53
2019-05-17T03:46:22.935Z,101249.98
2019-05-17T03:48:53.211Z,101249.75
2019-05-17T03:51:23.337Z,101252.71
2019-05-17T03:53:53.174Z,101244.31
2019-05-17T03:56:22.531Z,101248.38
2019-05-17T03:58:53.031Z,101250.73
2019-05-17T04:01:23.202Z,101251.07
2019-05-17T04:04:02.569Z,101256.58
2019-05-17T04:06:32.648Z,101261.86
2019-05-17T04:09:03.834Z,101258.84
2019-05-17T04:11:36.032Z,101261.63
2019-05-17T04:14:03.168Z,101258.61
2019-05-17T04:16:33.848Z,101254.13
2019-05-17T04:19:03.292Z,101256.20
2019-05-17T04:21:34.123Z,101257.34
2019-05-17T04:24:03.373Z,101252.28
2019-05-17T04:26:32.871Z,101259.51
2019-05-17T04:29:03.561Z,101263.98
2019-05-17T04:31:35.405Z,101263.80
2019-05-17T04:34:16.009Z,101267.57
2019-05-17T04:36:45.120Z,101274.36
2019-05-17T04:39:13.993Z,101272.57
2019-05-17T04:41:49.740Z,101270.97
2019-05-17T04:44:14.288Z,101268.33
2019-05-17T04:46:43.444Z,101268.23
2019-05-17T04:49:13.928Z,101271.35
2019-05-17T04:51:43.907Z,101271.77
2019-05-17T04:54:13.920Z,101266.24
2019-05-17T04:56:46.380Z,101268.47
2019-05-17T04:59:18.308Z,101273.32
2019-05-17T05:01:48.358Z,101267.28
2019-05-17T05:04:17.213Z,101256.43
2019-05-17T05:06:46.010Z,101254.86
2019-05-17T05:09:14.843Z,101256.56
2019-05-17T05:12:01.440Z,101258.45
2019-05-17T05:14:27.821Z,101251.94
2019-05-17T05:17:38.038Z,101249.39
2019-05-17T05:20:07.321Z,101236.39
2019-05-17T05:22:36.621Z,101233.75
2019-05-17T05:25:14.156Z,101239.66
2019-05-17T05:27:43.366Z,101236.39
2019-05-17T05:30:12.744Z,101238.56
2019-05-17T05:33:17.695Z,101238.97
2019-05-17T05:35:55.615Z,101252.56
2019-05-17T05:39:15.244Z,101254.58
2019-05-17T05:41:44.529Z,101250.45
2019-05-17T05:44:16.077Z,101259.55
2019-05-17T05:46:45.667Z,101261.88
2019-05-17T05:49:14.630Z,101257.32
2019-05-17T05:51:43.613Z,101260.25
2019-05-17T05:54:12.608Z,101263.07
2019-05-17T05:57:02.102Z,101265.05
2019-05-17T05:59:35.478Z,101268.68
2019-05-17T06:02:04.746Z,101259.05
2019-05-17T06:04:37.906Z,101259.43
2019-05-17T06:07:06.804Z,101250.93
2019-05-17T06:09:35.900Z,101253.38
2019-05-17T06:24:32.618Z,101244.73
2019-05-17T06:27:02.116Z,101240.20
2019-05-17T06:29:41.536Z,101245.95
2019-05-17T06:32:11.868Z,101243.52
2019-05-17T06:34:42.280Z,101241.79
2019-05-17T06:37:12.985Z,101243.49
2019-05-17T06:39:42.097Z,101241.46
2019-05-17T06:42:17.216Z,101238.81
2019-05-17T06:44:46.028Z,101229.38
2019-05-17T06:47:14.958Z,101224.22
2019-05-17T06:49:44.103Z,101227.79
2019-05-17T06:52:13.050Z,101234.53
2019-05-17T06:54:42.052Z,101230.90
2019-05-17T06:57:12.808Z,101236.02
2019-05-17T06:59:42.122Z,101230.73
2019-05-17T07:02:11.032Z,101228.94
2019-05-17T07:04:40.107Z,101232.22
2019-05-17T07:07:26.893Z,101233.08
2019-05-17T07:09:56.989Z,101232.64
2019-05-17T07:12:26.026Z,101228.08
2019-05-17T07:14:58.112Z,101230.90
2019-05-17T07:17:25.612Z,101225.02
2019-05-17T07:19:54.524Z,101226.93
2019-05-17T07:22:23.310Z,101231.11
2019-05-17T07:24:52.200Z,101237.63
2019-05-17T07:27:21.175Z,101240.64
2019-05-17T07:29:50.111Z,101238.68
2019-05-17T07:32:19.389Z,101244.92
2019-05-17T07:34:50.191Z,101225.81
2019-05-17T07:37:19.546Z,101224.00
2019-05-17T07:40:00.912Z,101215.42
2019-05-17T07:42:19.621Z,101216.23
2019-05-17T07:44:49.679Z,101216.07
2019-05-17T07:47:20.320Z,101213.52
2019-05-17T07:49:49.517Z,101218.22
2019-05-17T07:52:20.625Z,101216.59
2019-05-17T07:54:50.837Z,101214.60
2019-05-17T07:57:20.719Z,101217.05
2019-05-17T07:59:50.914Z,101221.59
2019-05-17T08:02:19.925Z,101219.91
2019-05-17T08:04:50.086Z,101217.66
2019-05-17T08:07:19.670Z,101210.42
2019-05-17T08:09:50.640Z,101203.67
2019-05-17T08:12:19.953Z,101201.95
2019-05-17T08:14:50.303Z,101204.25
2019-05-17T08:17:19.906Z,101208.70
2019-05-17T08:19:49.796Z,101221.53
2019-05-17T08:22:21.683Z,101207.09
2019-05-17T08:24:51.052Z,101207.80
2019-05-17T08:27:20.219Z,101207.88
2019-05-17T08:29:49.874Z,101211.94
2019-05-17T08:32:20.772Z,101205.01
2019-05-17T08:34:51.675Z,101220.77
2019-05-17T08:37:20.476Z,101220.25
2019-05-17T08:39:50.510Z,101219.52
2019-05-17T08:42:20.490Z,101218.61
2019-05-17T08:44:49.807Z,101219.59
2019-05-17T08:47:21.000Z,101221.11
2019-05-17T08:49:52.113Z,101210.05
2019-05-17T08:52:21.361Z,101217.05
2019-05-17T08:54:52.577Z,101213.44
2019-05-17T08:57:21.724Z,101204.66
2019-05-17T08:59:51.055Z,101210.13
2019-05-17T09:02:20.156Z,101212.12
2019-05-17T09:04:49.782Z,101203.84
2019-05-17T09:07:20.402Z,101199.33
2019-05-17T09:09:50.297Z,101192.84
2019-05-17T09:12:20.610Z,101193.97
2019-05-17T09:14:49.773Z,101184.14
2019-05-17T09:17:19.378Z,101179.67
2019-05-17T09:19:50.972Z,101161.53
2019-05-17T09:22:20.250Z,101181.11
2019-05-17T09:24:50.033Z,101180.06
2019-05-17T09:27:19.808Z,101172.21
2019-05-17T09:29:49.707Z,101171.06
2019-05-17T09:35:46.307Z,101162.03
2019-05-17T09:38:15.119Z,101164.86
2019-05-17T09:40:44.048Z,101163.56
2019-05-17T09:43:14.939Z,101164.29
2019-05-17T09:45:43.671Z,101162.87
2019-05-17T09:48:13.151Z,101157.19
2019-05-17T09:50:42.103Z,101165.40
2019-05-17T09:53:12.288Z,101164.41
2019-05-17T09:56:21.719Z,101154.49
2019-05-17T09:58:50.826Z,101149.92
2019-05-17T10:01:19.886Z,101137.51
2019-05-17T10:03:50.638Z,101132.73
2019-05-17T10:06:20.217Z,101135.50
2019-05-17T10:08:50.163Z,101122.75
2019-05-17T10:11:20.482Z,101107.54
2019-05-17T10:13:50.000Z,101117.10
2019-05-17T10:16:20.325Z,101108.86
2019-05-17T10:18:49.781Z,101103.65
2019-05-17T10:21:19.856Z,101109.48
2019-05-17T10:23:49.683Z,101107.41
2019-05-17T10:26:19.757Z,101100.00
2019-05-17T10:28:51.604Z,101101.28
2019-05-17T10:31:20.746Z,101093.20
2019-05-17T10:33:50.082Z,101089.69
2019-05-17T10:36:20.203Z,101091.17
2019-05-17T10:38:50.254Z,101089.17
2019-05-17T10:41:19.864Z,101086.02
2019-05-17T10:43:50.111Z,101079.34
2019-05-17T10:46:20.648Z,101087.95
2019-05-17T10:48:50.163Z,101082.69
2019-05-17T10:51:20.255Z,101080.06
2019-05-17T10:53:51.232Z,101074.44
2019-05-17T10:56:23.403Z,101068.84
2019-05-17T10:58:50.601Z,101070.52
2019-05-17T11:01:20.098Z,101069.08
2019-05-17T11:03:50.258Z,101070.87
2019-05-17T11:06:19.795Z,101070.97
2019-05-17T11:08:50.117Z,101075.41
2019-05-17T11:11:20.126Z,101071.46
2019-05-17T11:16:17.162Z,101071.74
2019-05-17T11:18:45.960Z,101068.77
2019-05-17T11:21:14.915Z,101062.21
2019-05-17T11:23:43.942Z,101072.38
2019-05-17T11:26:13.055Z,101072.02
2019-05-17T11:28:42.012Z,101061.07
2019-05-17T11:31:10.900Z,101066.59
2019-05-17T11:33:39.808Z,101067.65
2019-05-17T11:36:08.616Z,101060.80
2019-05-17T11:38:37.593Z,101057.80
2019-05-17T11:41:20.547Z,101056.20
2019-05-17T11:43:37.037Z,101055.13
2019-05-17T11:46:07.767Z,101048.28
2019-05-17T11:48:36.957Z,101042.44
2019-05-17T11:51:06.085Z,101037.53
2019-05-17T11:53:35.044Z,101039.07
2019-05-17T11:56:04.380Z,101039.75
2019-05-17T11:58:33.172Z,101042.86
2019-05-17T12:01:02.051Z,101034.02
2019-05-17T12:03:30.936Z,101033.52
2019-05-17T12:06:00.078Z,101036.92
2019-05-17T12:08:28.900Z,101033.86
2019-05-17T12:10:57.866Z,101037.25
2019-05-17T12:13:26.758Z,101035.70
2019-05-17T12:15:55.763Z,101029.02
2019-05-17T12:18:24.572Z,101026.88
2019-05-17T12:20:53.461Z,101022.03
2019-05-17T12:23:22.363Z,101018.39
2019-05-17T12:25:51.252Z,101024.00
2019-05-17T12:28:20.109Z,101019.25
2019-05-17T12:30:49.153Z,101011.45
2019-05-17T12:33:18.194Z,101012.39
2019-05-17T12:35:47.064Z,101006.43
2019-05-17T12:38:16.258Z,101012.76
2019-05-17T12:40:45.375Z,101001.06
2019-05-17T12:43:14.450Z,101001.50
2019-05-17T12:45:43.333Z,101003.22
2019-05-17T12:48:13.266Z,100998.48
2019-05-17T12:50:42.374Z,100999.02
2019-05-17T12:53:11.288Z,101001.17
2019-05-17T12:55:40.174Z,101000.59
2019-05-17T12:58:09.065Z,100999.75
2019-05-17T13:00:37.935Z,100999.17
2019-05-17T13:03:06.858Z,101001.17
2019-05-17T13:05:35.802Z,101002.97
2019-05-17T13:08:05.970Z,101004.05
2019-05-17T13:10:34.879Z,101005.73
2019-05-17T13:13:05.461Z,100999.63
2019-05-17T13:15:34.390Z,101008.34
2019-05-17T13:18:03.769Z,101007.67
2019-05-17T13:20:33.692Z,101000.92
2019-05-17T13:23:02.888Z,100997.20
2019-05-17T13:25:35.188Z,100994.20
2019-05-17T13:28:04.278Z,100990.46
2019-05-17T13:30:33.254Z,100986.70
2019-05-17T13:33:13.177Z,100991.16
2019-05-17T13:35:42.267Z,100983.72
2019-05-17T13:38:11.685Z,100988.00
2019-05-17T13:40:40.698Z,100983.55
2019-05-17T13:43:10.043Z,100980.64
2019-05-17T13:45:39.091Z,100975.36
2019-05-17T13:48:08.295Z,100975.13
2019-05-17T13:54:17.235Z,100964.34
2019-05-17T13:56:46.211Z,100976.63
2019-05-17T13:59:15.133Z,100965.13
2019-05-17T14:01:44.171Z,100962.64
2019-05-17T14:04:13.320Z,100959.34
2019-05-17T14:06:42.444Z,100953.65
2019-05-17T14:09:11.558Z,100957.36
2019-05-17T14:11:40.484Z,100955.43
2019-05-17T14:14:09.262Z,100962.20
2019-05-17T14:16:38.252Z,100964.82
2019-05-17T14:19:07.231Z,100963.84
2019-05-17T14:21:36.278Z,100961.17
2019-05-17T14:24:05.439Z,100966.14
2019-05-17T14:26:35.472Z,100961.44
2019-05-17T14:29:04.628Z,100948.84
2019-05-17T14:31:33.563Z,100961.22
2019-05-17T14:34:02.953Z,100957.12
2019-05-17T14:36:31.924Z,100950.34
2019-05-17T14:39:00.963Z,100953.11
2019-05-17T14:41:29.936Z,100957.00
2019-05-17T14:43:58.716Z,100958.78
2019-05-17T14:46:27.617Z,100961.38
2019-05-17T14:48:56.649Z,100954.39
2019-05-17T14:51:25.690Z,100955.84
2019-05-17T14:53:54.784Z,100951.18
2019-05-17T14:56:23.731Z,100961.12
2019-05-17T14:58:52.663Z,100951.48
2019-05-17T15:01:21.735Z,100943.55
2019-05-17T15:03:50.875Z,100943.46
2019-05-17T15:06:19.948Z,100934.69
2019-05-17T15:08:48.799Z,100929.04
2019-05-17T15:11:17.749Z,100928.08
2019-05-17T15:13:47.703Z,100925.93
2019-05-17T15:16:16.649Z,100925.90
2019-05-17T15:18:45.556Z,100916.00
2019-05-17T15:21:14.543Z,100911.99
2019-05-17T15:23:43.509Z,100924.95
2019-05-17T15:26:12.571Z,100911.94
2019-05-17T15:28:41.629Z,100909.05
2019-05-17T15:31:10.696Z,100917.94
2019-05-17T15:33:39.503Z,100907.73
2019-05-17T15:36:10.029Z,100913.89
2019-05-17T15:38:39.080Z,100907.58
2019-05-17T15:41:08.053Z,100903.77
2019-05-17T15:43:36.938Z,100905.28
2019-05-17T15:46:06.172Z,100909.55
2019-05-17T15:48:35.082Z,100903.59
2019-05-17T15:51:05.585Z,100899.05
2019-05-17T15:53:34.382Z,100897.61
2019-05-17T15:56:05.464Z,100902.44
2019-05-17T15:58:35.512Z,100891.89
2019-05-17T16:01:05.488Z,100893.16
2019-05-17T16:03:36.026Z,100898.09
2019-05-17T16:06:05.557Z,100895.03
2019-05-17T16:08:38.063Z,100890.16
2019-05-17T16:11:24.433Z,100882.84
2019-05-17T16:14:31.158Z,100884.01
2019-05-17T16:17:48.544Z,100880.31
2019-05-17T16:20:21.258Z,100876.19
2019-05-17T16:22:51.550Z,100877.90
2019-05-17T16:25:21.833Z,100877.75
2019-05-17T16:27:50.979Z,100869.05
2019-05-17T16:30:21.254Z,100866.71
2019-05-17T16:32:50.761Z,100867.61
2019-05-17T16:35:20.467Z,100866.83
2019-05-17T16:37:49.418Z,100869.62
2019-05-17T16:40:31.276Z,100867.94
2019-05-17T16:43:16.768Z,100862.81
2019-05-17T16:45:33.514Z,100876.83
2019-05-17T16:48:02.937Z,100862.77
2019-05-17T16:50:32.209Z,100871.28
2019-05-17T16:53:06.046Z,100866.89
2019-05-17T16:55:33.118Z,100866.36
2019-05-17T16:58:04.357Z,100867.86
2019-05-17T17:00:35.843Z,100867.95
2019-05-17T17:03:09.119Z,100866.03
2019-05-17T17:05:38.440Z,100861.18
2019-05-17T17:08:07.680Z,100861.27
2019-05-17T17:10:37.063Z,100860.59
2019-05-17T17:13:07.807Z,100857.13
2019-05-17T17:15:37.029Z,100861.48
2019-05-17T17:18:06.660Z,100856.16
2019-05-17T17:20:36.871Z,100863.80
2019-05-17T17:23:53.687Z,100869.60
2019-05-17T17:34:22.151Z,100882.08
2019-05-17T17:37:03.400Z,100877.47
2019-05-17T17:39:34.942Z,100875.14
2019-05-17T17:42:13.762Z,100886.72
2019-05-17T17:47:57.511Z,100885.23
2019-05-17T17:50:44.244Z,100883.11
2019-05-17T17:53:41.348Z,100877.61
2019-05-17T18:03:41.084Z,100887.80
2019-05-17T18:09:23.281Z,100884.03
2019-05-17T18:11:57.343Z,100877.17
2019-05-17T18:14:32.817Z,100888.44
2019-05-17T18:20:45.269Z,100885.36
2019-05-17T18:23:14.699Z,100893.39
2019-05-17T18:25:44.564Z,100898.28
2019-05-17T18:28:17.252Z,100892.77
2019-05-17T18:31:22.187Z,100897.40
2019-05-17T18:34:13.287Z,100888.79
2019-05-17T18:36:58.403Z,100899.41
2019-05-17T18:43:34.033Z,100904.75
2019-05-17T18:46:13.178Z,100908.30
2019-05-17T18:48:42.413Z,100907.20
2019-05-17T18:51:12.405Z,100901.75
2019-05-17T18:57:15.250Z,100906.84
2019-05-17T18:59:47.052Z,100903.59
2019-05-17T19:02:16.742Z,100912.28
2019-05-17T19:04:46.261Z,100905.02
2019-05-17T19:07:58.647Z,100913.64
2019-05-17T19:10:28.671Z,100911.47
2019-05-17T19:12:58.129Z,100913.51
2019-05-17T19:15:27.707Z,100915.22
2019-05-17T19:17:59.317Z,100922.59
2019-05-17T19:20:28.628Z,100927.78
2019-05-17T19:22:57.902Z,100929.45
2019-05-17T19:25:27.310Z,100932.12
2019-05-17T19:29:04.145Z,100929.34
2019-05-17T19:31:33.688Z,100935.62
2019-05-17T19:34:04.926Z,100935.89
2019-05-17T19:36:34.104Z,100931.39
2019-05-17T19:39:05.005Z,100935.74
2019-05-17T19:41:34.459Z,100933.57
2019-05-17T19:45:14.864Z,100935.47
2019-05-17T19:47:44.456Z,100938.76
2019-05-17T19:50:13.746Z,100943.67
2019-05-17T19:52:42.796Z,100940.18
2019-05-17T19:55:12.730Z,100937.26
2019-05-17T19:57:41.957Z,100939.20
2019-05-17T20:00:12.380Z,100937.27
2019-05-17T20:02:41.574Z,100940.71
2019-05-17T20:05:11.033Z,100945.42
2019-05-17T20:07:40.346Z,100940.89
2019-05-17T20:10:11.145Z,100941.13
2019-05-17T20:12:40.391Z,100935.82
2019-05-17T20:15:17.392Z,100935.12
2019-05-17T20:17:42.215Z,100939.62
2019-05-17T20:20:16.393Z,100939.02
2019-05-17T20:22:45.772Z,100945.25
2019-05-17T20:25:15.393Z,100945.13
2019-05-17T20:28:06.969Z,100942.36
2019-05-17T20:30:36.128Z,100951.45
2019-05-17T20:33:05.504Z,100948.39
2019-05-17T20:35:34.833Z,100938.09
2019-05-17T20:38:04.443Z,100942.00
2019-05-17T20:40:34.175Z,100944.80
2019-05-17T20:43:03.650Z,100945.05
2019-05-17T20:45:33.760Z,100936.08
2019-05-17T20:48:03.174Z,100938.20
2019-05-17T20:50:33.508Z,100938.27
2019-05-17T20:53:16.540Z,100930.09
2019-05-17T20:55:33.631Z,100935.33
2019-05-17T20:58:03.843Z,100934.25
2019-05-17T21:00:33.150Z,100936.79
2019-05-17T21:03:02.537Z,100926.76
2019-05-17T21:05:31.863Z,100927.31
2019-05-17T21:08:01.021Z,100925.68
2019-05-17T21:10:30.421Z,100917.75
2019-05-17T21:12:59.680Z,100922.14
2019-05-17T21:15:29.214Z,100933.18
2019-05-17T21:17:59.211Z,100926.05
2019-05-17T21:20:28.527Z,100922.55
2019-05-17T21:22:58.012Z,100918.39
2019-05-17T21:25:27.339Z,100920.31
2019-05-17T21:27:57.596Z,100922.44
2019-05-17T21:30:26.740Z,100914.66
2019-05-17T21:32:55.904Z,100920.33
2019-05-17T21:35:25.115Z,100919.83
2019-05-17T21:37:54.355Z,100916.95
2019-05-17T21:40:23.692Z,100906.64
2019-05-17T21:42:52.877Z,100909.72
2019-05-17T21:45:22.274Z,100921.24
2019-05-17T21:47:51.452Z,100909.36
2019-05-17T21:50:20.735Z,100916.97
2019-05-17T21:52:50.071Z,100917.27
2019-05-17T21:55:21.078Z,100917.92
2019-05-17T21:57:50.377Z,100917.92
2019-05-17T22:00:57.543Z,100924.79
2019-05-17T22:03:26.578Z,100922.39
2019-05-17T22:05:56.007Z,100917.92
2019-05-17T22:08:25.721Z,100921.05
2019-05-17T22:10:54.937Z,100917.63
2019-05-17T22:13:23.990Z,100911.77
2019-05-17T22:15:53.124Z,100922.43
2019-05-17T22:18:24.639Z,100919.91
2019-05-17T22:20:54.236Z,100918.47
2019-05-17T22:23:28.323Z,100918.59
2019-05-17T22:25:58.000Z,100915.80
2019-05-17T22:28:27.127Z,100914.48
2019-05-17T22:30:56.213Z,100910.08
2019-05-17T22:33:31.379Z,100912.20
2019-05-17T22:36:00.554Z,100904.66
2019-05-17T22:38:29.652Z,100899.09
2019-05-17T22:40:58.587Z,100899.09
2019-05-17T22:43:28.077Z,100908.62
2019-05-17T22:45:56.959Z,100904.89
2019-05-17T22:48:25.725Z,100904.89
2019-05-17T22:50:55.450Z,100908.22
2019-05-17T22:53:24.278Z,100914.31
2019-05-17T22:55:53.666Z,100911.95
2019-05-17T22:58:22.455Z,100905.93
2019-05-17T23:00:51.357Z,100904.23
2019-05-17T23:03:20.137Z,100905.45
2019-05-17T23:05:48.937Z,100905.45
2019-05-17T23:08:17.907Z,100910.77
2019-05-17T23:10:46.702Z,100902.48
2019-05-17T23:13:15.643Z,100904.41
2019-05-17T23:16:03.925Z,100900.70
2019-05-17T23:18:34.076Z,100900.70
2019-05-17T23:21:03.535Z,100886.18
2019-05-17T23:23:32.426Z,100886.18
2019-05-17T23:26:01.319Z,100896.77
2019-05-17T23:28:30.264Z,100894.13
2019-05-17T23:30:59.105Z,100894.13
2019-05-17T23:33:28.827Z,100896.09
2019-05-17T23:35:57.615Z,100899.47
2019-05-17T23:38:26.749Z,100894.17
2019-05-17T23:40:55.551Z,100900.11
2019-05-17T23:43:24.367Z,100895.50
2019-05-17T23:45:53.287Z,100899.52
2019-05-17T23:48:22.137Z,100894.67
2019-05-17T23:50:50.904Z,100889.20
2019-05-17T23:53:19.704Z,100891.94
2019-05-17T23:55:49.522Z,100893.53
2019-05-17T23:58:18.327Z,100894.03
